sensor_id;sensor_type;location;lat;lon;timestamp;P1;durP1;ratioP1;P2;durP2;ratioP2
46765;SDS011;32527;51.986;5.842;2023-11-22T00:00:46;9.48;;;6.38;;
46765;SDS011;32527;51.986;5.842;2023-11-22T00:03:12;12.90;;;7.85;;
46765;SDS011;32527;51.986;5.842;2023-11-22T00:05:38;11.90;;;6.45;;
46765;SDS011;32527;51.986;5.842;2023-11-22T00:08:04;10.55;;;6.15;;
46765;SDS011;32527;51.986;5.842;2023-11-22T00:10:30;18.05;;;7.28;;
46765;SDS011;32527;51.986;5.842;2023-11-22T00:12:56;14.43;;;6.93;;
46765;SDS011;32527;51.986;5.842;2023-11-22T00:15:23;11.93;;;6.05;;
46765;SDS011;32527;51.986;5.842;2023-11-22T00:17:51;15.90;;;6.30;;
46765;SDS011;32527;51.986;5.842;2023-11-22T00:20:17;10.65;;;6.93;;
46765;SDS011;32527;51.986;5.842;2023-11-22T00:22:44;14.80;;;8.57;;
46765;SDS011;32527;51.986;5.842;2023-11-22T00:25:12;12.82;;;7.95;;
46765;SDS011;32527;51.986;5.842;2023-11-22T00:27:39;11.68;;;6.78;;
46765;SDS011;32527;51.986;5.842;2023-11-22T00:30:05;17.48;;;7.53;;
46765;SDS011;32527;51.986;5.842;2023-11-22T00:32:31;11.25;;;6.78;;
46765;SDS011;32527;51.986;5.842;2023-11-22T00:34:57;12.10;;;6.30;;
46765;SDS011;32527;51.986;5.842;2023-11-22T00:37:23;15.38;;;7.53;;
46765;SDS011;32527;51.986;5.842;2023-11-22T00:39:49;14.43;;;7.75;;
46765;SDS011;32527;51.986;5.842;2023-11-22T00:42:16;10.00;;;6.65;;
46765;SDS011;32527;51.986;5.842;2023-11-22T00:44:45;9.82;;;6.60;;
46765;SDS011;32527;51.986;5.842;2023-11-22T00:47:12;11.57;;;5.78;;
46765;SDS011;32527;51.986;5.842;2023-11-22T00:49:38;13.95;;;6.78;;
46765;SDS011;32527;51.986;5.842;2023-11-22T00:52:04;10.50;;;5.50;;
46765;SDS011;32527;51.986;5.842;2023-11-22T00:54:32;13.40;;;6.85;;
46765;SDS011;32527;51.986;5.842;2023-11-22T00:56:58;13.13;;;7.07;;
46765;SDS011;32527;51.986;5.842;2023-11-22T00:59:25;13.48;;;7.63;;
46765;SDS011;32527;51.986;5.842;2023-11-22T01:01:51;14.55;;;8.10;;
46765;SDS011;32527;51.986;5.842;2023-11-22T01:04:18;12.40;;;6.93;;
46765;SDS011;32527;51.986;5.842;2023-11-22T01:06:44;12.98;;;7.30;;
46765;SDS011;32527;51.986;5.842;2023-11-22T01:09:10;15.23;;;8.52;;
46765;SDS011;32527;51.986;5.842;2023-11-22T01:11:38;12.30;;;5.72;;
46765;SDS011;32527;51.986;5.842;2023-11-22T01:14:04;13.98;;;9.07;;
46765;SDS011;32527;51.986;5.842;2023-11-22T01:16:30;7.07;;;5.03;;
46765;SDS011;32527;51.986;5.842;2023-11-22T01:18:57;14.02;;;6.95;;
46765;SDS011;32527;51.986;5.842;2023-11-22T01:21:23;12.85;;;6.07;;
46765;SDS011;32527;51.986;5.842;2023-11-22T01:23:50;13.93;;;6.22;;
46765;SDS011;32527;51.986;5.842;2023-11-22T01:26:16;7.70;;;5.20;;
46765;SDS011;32527;51.986;5.842;2023-11-22T01:28:42;18.08;;;6.53;;
46765;SDS011;32527;51.986;5.842;2023-11-22T01:31:12;14.50;;;6.93;;
46765;SDS011;32527;51.986;5.842;2023-11-22T01:33:38;21.52;;;6.78;;
46765;SDS011;32527;51.986;5.842;2023-11-22T01:36:06;15.95;;;7.05;;
46765;SDS011;32527;51.986;5.842;2023-11-22T01:38:32;10.88;;;6.97;;
46765;SDS011;32527;51.986;5.842;2023-11-22T01:40:59;10.00;;;5.63;;
46765;SDS011;32527;51.986;5.842;2023-11-22T01:43:27;12.50;;;6.88;;
46765;SDS011;32527;51.986;5.842;2023-11-22T01:45:54;12.68;;;7.47;;
46765;SDS011;32527;51.986;5.842;2023-11-22T01:48:20;15.15;;;7.13;;
46765;SDS011;32527;51.986;5.842;2023-11-22T01:50:47;7.25;;;5.55;;
46765;SDS011;32527;51.986;5.842;2023-11-22T01:53:13;14.18;;;7.25;;
46765;SDS011;32527;51.986;5.842;2023-11-22T01:55:41;15.52;;;7.72;;
46765;SDS011;32527;51.986;5.842;2023-11-22T01:58:09;8.73;;;6.65;;
46765;SDS011;32527;51.986;5.842;2023-11-22T02:01:08;14.95;;;7.00;;
46765;SDS011;32527;51.986;5.842;2023-11-22T02:03:27;9.73;;;5.97;;
46765;SDS011;32527;51.986;5.842;2023-11-22T02:05:55;10.93;;;5.57;;
46765;SDS011;32527;51.986;5.842;2023-11-22T02:08:22;11.55;;;6.65;;
46765;SDS011;32527;51.986;5.842;2023-11-22T02:10:57;13.18;;;9.38;;
46765;SDS011;32527;51.986;5.842;2023-11-22T02:13:28;10.32;;;6.15;;
46765;SDS011;32527;51.986;5.842;2023-11-22T02:15:54;12.73;;;7.88;;
46765;SDS011;32527;51.986;5.842;2023-11-22T02:18:22;13.20;;;6.47;;
46765;SDS011;32527;51.986;5.842;2023-11-22T02:20:48;10.13;;;6.03;;
46765;SDS011;32527;51.986;5.842;2023-11-22T02:23:15;13.23;;;6.53;;
46765;SDS011;32527;51.986;5.842;2023-11-22T02:25:42;12.30;;;6.63;;
46765;SDS011;32527;51.986;5.842;2023-11-22T02:28:08;9.85;;;5.78;;
46765;SDS011;32527;51.986;5.842;2023-11-22T02:30:34;12.48;;;7.03;;
46765;SDS011;32527;51.986;5.842;2023-11-22T02:33:01;11.48;;;6.03;;
46765;SDS011;32527;51.986;5.842;2023-11-22T02:35:27;12.10;;;5.65;;
46765;SDS011;32527;51.986;5.842;2023-11-22T02:37:53;10.50;;;7.60;;
46765;SDS011;32527;51.986;5.842;2023-11-22T02:40:19;11.52;;;6.38;;
46765;SDS011;32527;51.986;5.842;2023-11-22T02:42:50;8.98;;;5.05;;
46765;SDS011;32527;51.986;5.842;2023-11-22T02:45:18;9.65;;;6.30;;
46765;SDS011;32527;51.986;5.842;2023-11-22T02:47:48;14.95;;;6.88;;
46765;SDS011;32527;51.986;5.842;2023-11-22T02:50:14;12.18;;;7.43;;
46765;SDS011;32527;51.986;5.842;2023-11-22T02:52:41;9.43;;;5.93;;
46765;SDS011;32527;51.986;5.842;2023-11-22T02:55:08;14.98;;;7.72;;
46765;SDS011;32527;51.986;5.842;2023-11-22T02:57:37;12.02;;;6.47;;
46765;SDS011;32527;51.986;5.842;2023-11-22T03:00:08;12.73;;;5.78;;
46765;SDS011;32527;51.986;5.842;2023-11-22T03:02:38;11.02;;;5.38;;
46765;SDS011;32527;51.986;5.842;2023-11-22T03:05:05;12.05;;;4.88;;
46765;SDS011;32527;51.986;5.842;2023-11-22T03:07:32;12.25;;;8.15;;
46765;SDS011;32527;51.986;5.842;2023-11-22T03:09:58;7.10;;;5.22;;
46765;SDS011;32527;51.986;5.842;2023-11-22T03:12:25;9.73;;;5.38;;
46765;SDS011;32527;51.986;5.842;2023-11-22T03:14:51;12.45;;;7.28;;
46765;SDS011;32527;51.986;5.842;2023-11-22T03:17:24;11.68;;;6.72;;
46765;SDS011;32527;51.986;5.842;2023-11-22T03:19:50;10.85;;;5.47;;
46765;SDS011;32527;51.986;5.842;2023-11-22T03:22:16;8.43;;;5.10;;
46765;SDS011;32527;51.986;5.842;2023-11-22T03:24:42;12.70;;;7.32;;
46765;SDS011;32527;51.986;5.842;2023-11-22T03:27:09;11.95;;;6.15;;
46765;SDS011;32527;51.986;5.842;2023-11-22T03:29:35;9.10;;;5.88;;
46765;SDS011;32527;51.986;5.842;2023-11-22T03:32:01;7.70;;;4.78;;
46765;SDS011;32527;51.986;5.842;2023-11-22T03:34:27;11.43;;;5.78;;
46765;SDS011;32527;51.986;5.842;2023-11-22T03:36:53;7.28;;;5.30;;
46765;SDS011;32527;51.986;5.842;2023-11-22T03:39:19;10.10;;;5.03;;
46765;SDS011;32527;51.986;5.842;2023-11-22T03:41:45;9.35;;;6.45;;
46765;SDS011;32527;51.986;5.842;2023-11-22T03:44:11;11.68;;;6.55;;
46765;SDS011;32527;51.986;5.842;2023-11-22T03:46:38;12.50;;;7.28;;
46765;SDS011;32527;51.986;5.842;2023-11-22T03:49:04;11.90;;;5.35;;
46765;SDS011;32527;51.986;5.842;2023-11-22T03:51:32;14.77;;;6.35;;
46765;SDS011;32527;51.986;5.842;2023-11-22T03:53:58;10.48;;;6.22;;
46765;SDS011;32527;51.986;5.842;2023-11-22T03:56:24;11.57;;;5.60;;
46765;SDS011;32527;51.986;5.842;2023-11-22T03:58:50;13.10;;;6.53;;
46765;SDS011;32527;51.986;5.842;2023-11-22T04:01:16;9.70;;;5.88;;
46765;SDS011;32527;51.986;5.842;2023-11-22T04:03:43;9.88;;;5.53;;
46765;SDS011;32527;51.986;5.842;2023-11-22T04:06:09;12.80;;;5.57;;
46765;SDS011;32527;51.986;5.842;2023-11-22T04:08:35;12.98;;;5.57;;
46765;SDS011;32527;51.986;5.842;2023-11-22T04:11:03;13.30;;;7.15;;
46765;SDS011;32527;51.986;5.842;2023-11-22T04:13:30;11.30;;;6.80;;
46765;SDS011;32527;51.986;5.842;2023-11-22T04:15:56;17.80;;;7.85;;
46765;SDS011;32527;51.986;5.842;2023-11-22T04:18:22;13.70;;;5.97;;
46765;SDS011;32527;51.986;5.842;2023-11-22T04:20:49;16.92;;;6.00;;
46765;SDS011;32527;51.986;5.842;2023-11-22T04:23:16;13.82;;;6.35;;
46765;SDS011;32527;51.986;5.842;2023-11-22T04:25:42;12.57;;;7.05;;
46765;SDS011;32527;51.986;5.842;2023-11-22T04:28:08;11.52;;;5.93;;
46765;SDS011;32527;51.986;5.842;2023-11-22T04:30:35;12.30;;;6.13;;
46765;SDS011;32527;51.986;5.842;2023-11-22T04:33:01;8.70;;;5.35;;
46765;SDS011;32527;51.986;5.842;2023-11-22T04:35:27;7.50;;;4.80;;
46765;SDS011;32527;51.986;5.842;2023-11-22T04:37:53;13.27;;;7.18;;
46765;SDS011;32527;51.986;5.842;2023-11-22T04:40:23;14.27;;;8.10;;
46765;SDS011;32527;51.986;5.842;2023-11-22T04:42:49;12.60;;;5.50;;
46765;SDS011;32527;51.986;5.842;2023-11-22T04:45:15;9.63;;;6.03;;
46765;SDS011;32527;51.986;5.842;2023-11-22T04:47:41;9.75;;;6.85;;
46765;SDS011;32527;51.986;5.842;2023-11-22T04:50:07;9.77;;;5.68;;
46765;SDS011;32527;51.986;5.842;2023-11-22T04:52:34;7.53;;;5.90;;
46765;SDS011;32527;51.986;5.842;2023-11-22T04:55:00;11.98;;;7.22;;
46765;SDS011;32527;51.986;5.842;2023-11-22T04:57:26;8.15;;;4.93;;
46765;SDS011;32527;51.986;5.842;2023-11-22T04:59:52;8.77;;;5.30;;
46765;SDS011;32527;51.986;5.842;2023-11-22T05:02:18;11.15;;;5.82;;
46765;SDS011;32527;51.986;5.842;2023-11-22T05:04:44;11.32;;;7.35;;
46765;SDS011;32527;51.986;5.842;2023-11-22T05:07:13;12.60;;;5.70;;
46765;SDS011;32527;51.986;5.842;2023-11-22T05:09:40;11.68;;;6.82;;
46765;SDS011;32527;51.986;5.842;2023-11-22T05:12:06;8.95;;;6.25;;
46765;SDS011;32527;51.986;5.842;2023-11-22T05:14:32;10.50;;;5.85;;
46765;SDS011;32527;51.986;5.842;2023-11-22T05:16:58;12.25;;;5.97;;
46765;SDS011;32527;51.986;5.842;2023-11-22T05:19:24;8.95;;;4.38;;
46765;SDS011;32527;51.986;5.842;2023-11-22T05:21:50;8.13;;;4.85;;
46765;SDS011;32527;51.986;5.842;2023-11-22T05:24:16;6.05;;;3.58;;
46765;SDS011;32527;51.986;5.842;2023-11-22T05:26:42;9.10;;;6.30;;
46765;SDS011;32527;51.986;5.842;2023-11-22T05:29:08;9.30;;;4.65;;
46765;SDS011;32527;51.986;5.842;2023-11-22T05:31:34;9.27;;;6.38;;
46765;SDS011;32527;51.986;5.842;2023-11-22T05:34:02;10.00;;;5.05;;
46765;SDS011;32527;51.986;5.842;2023-11-22T05:36:28;10.68;;;6.47;;
46765;SDS011;32527;51.986;5.842;2023-11-22T05:38:55;10.18;;;6.22;;
46765;SDS011;32527;51.986;5.842;2023-11-22T05:41:24;23.60;;;6.32;;
46765;SDS011;32527;51.986;5.842;2023-11-22T05:43:51;9.05;;;5.10;;
46765;SDS011;32527;51.986;5.842;2023-11-22T05:46:20;12.27;;;6.65;;
46765;SDS011;32527;51.986;5.842;2023-11-22T05:48:53;11.45;;;5.88;;
46765;SDS011;32527;51.986;5.842;2023-11-22T05:51:20;8.48;;;7.63;;
46765;SDS011;32527;51.986;5.842;2023-11-22T05:53:46;12.07;;;6.53;;
46765;SDS011;32527;51.986;5.842;2023-11-22T05:56:12;11.55;;;6.03;;
46765;SDS011;32527;51.986;5.842;2023-11-22T05:58:39;7.55;;;5.88;;
46765;SDS011;32527;51.986;5.842;2023-11-22T06:01:06;21.13;;;7.72;;
46765;SDS011;32527;51.986;5.842;2023-11-22T06:03:32;11.50;;;7.38;;
46765;SDS011;32527;51.986;5.842;2023-11-22T06:05:58;10.18;;;7.03;;
46765;SDS011;32527;51.986;5.842;2023-11-22T06:08:24;8.07;;;5.50;;
46765;SDS011;32527;51.986;5.842;2023-11-22T06:10:50;9.20;;;5.55;;
46765;SDS011;32527;51.986;5.842;2023-11-22T06:13:18;10.95;;;6.22;;
46765;SDS011;32527;51.986;5.842;2023-11-22T06:15:44;15.73;;;7.40;;
46765;SDS011;32527;51.986;5.842;2023-11-22T06:18:16;12.55;;;7.15;;
46765;SDS011;32527;51.986;5.842;2023-11-22T06:46:20;12.52;;;6.38;;
46765;SDS011;32527;51.986;5.842;2023-11-22T06:48:48;9.75;;;6.80;;
46765;SDS011;32527;51.986;5.842;2023-11-22T06:51:15;12.85;;;6.30;;
46765;SDS011;32527;51.986;5.842;2023-11-22T06:53:41;15.25;;;6.45;;
46765;SDS011;32527;51.986;5.842;2023-11-22T06:56:07;11.45;;;6.70;;
46765;SDS011;32527;51.986;5.842;2023-11-22T06:58:33;12.50;;;7.22;;
46765;SDS011;32527;51.986;5.842;2023-11-22T07:01:00;20.90;;;6.13;;
46765;SDS011;32527;51.986;5.842;2023-11-22T07:03:26;8.20;;;5.05;;
46765;SDS011;32527;51.986;5.842;2023-11-22T07:05:52;16.83;;;7.13;;
46765;SDS011;32527;51.986;5.842;2023-11-22T07:08:18;8.93;;;6.65;;
46765;SDS011;32527;51.986;5.842;2023-11-22T07:10:45;11.23;;;6.57;;
46765;SDS011;32527;51.986;5.842;2023-11-22T07:13:11;13.02;;;5.10;;
46765;SDS011;32527;51.986;5.842;2023-11-22T07:15:40;14.30;;;7.13;;
46765;SDS011;32527;51.986;5.842;2023-11-22T07:18:06;12.55;;;6.28;;
46765;SDS011;32527;51.986;5.842;2023-11-22T07:20:34;11.70;;;6.60;;
46765;SDS011;32527;51.986;5.842;2023-11-22T07:23:00;14.80;;;8.07;;
46765;SDS011;32527;51.986;5.842;2023-11-22T07:25:27;15.13;;;8.80;;
46765;SDS011;32527;51.986;5.842;2023-11-22T07:27:54;15.73;;;8.18;;
46765;SDS011;32527;51.986;5.842;2023-11-22T07:30:20;17.00;;;8.15;;
46765;SDS011;32527;51.986;5.842;2023-11-22T07:32:51;10.25;;;5.95;;
46765;SDS011;32527;51.986;5.842;2023-11-22T07:35:17;13.60;;;9.30;;
46765;SDS011;32527;51.986;5.842;2023-11-22T07:37:45;25.85;;;9.27;;
46765;SDS011;32527;51.986;5.842;2023-11-22T07:40:11;10.45;;;6.50;;
46765;SDS011;32527;51.986;5.842;2023-11-22T07:42:39;10.25;;;6.30;;
46765;SDS011;32527;51.986;5.842;2023-11-22T07:45:05;15.52;;;8.57;;
46765;SDS011;32527;51.986;5.842;2023-11-22T07:47:31;12.23;;;9.00;;
46765;SDS011;32527;51.986;5.842;2023-11-22T07:49:57;14.30;;;7.18;;
46765;SDS011;32527;51.986;5.842;2023-11-22T07:52:23;15.13;;;7.75;;
46765;SDS011;32527;51.986;5.842;2023-11-22T07:54:58;17.20;;;8.30;;
46765;SDS011;32527;51.986;5.842;2023-11-22T07:57:24;19.60;;;10.40;;
46765;SDS011;32527;51.986;5.842;2023-11-22T07:59:50;12.52;;;6.07;;
46765;SDS011;32527;51.986;5.842;2023-11-22T08:02:20;13.77;;;7.82;;
46765;SDS011;32527;51.986;5.842;2023-11-22T08:04:46;19.17;;;9.77;;
46765;SDS011;32527;51.986;5.842;2023-11-22T08:07:15;16.83;;;10.02;;
46765;SDS011;32527;51.986;5.842;2023-11-22T08:09:42;20.52;;;9.73;;
46765;SDS011;32527;51.986;5.842;2023-11-22T08:12:08;13.32;;;8.32;;
46765;SDS011;32527;51.986;5.842;2023-11-22T08:14:39;15.68;;;9.70;;
46765;SDS011;32527;51.986;5.842;2023-11-22T08:17:05;22.95;;;8.45;;
46765;SDS011;32527;51.986;5.842;2023-11-22T08:19:31;19.17;;;8.55;;
46765;SDS011;32527;51.986;5.842;2023-11-22T08:21:58;15.02;;;8.85;;
46765;SDS011;32527;51.986;5.842;2023-11-22T08:24:24;16.88;;;7.57;;
46765;SDS011;32527;51.986;5.842;2023-11-22T08:26:50;15.88;;;7.90;;
46765;SDS011;32527;51.986;5.842;2023-11-22T08:29:16;16.75;;;9.20;;
46765;SDS011;32527;51.986;5.842;2023-11-22T08:31:42;17.63;;;8.20;;
46765;SDS011;32527;51.986;5.842;2023-11-22T08:34:08;22.77;;;12.32;;
46765;SDS011;32527;51.986;5.842;2023-11-22T08:36:36;13.35;;;7.63;;
46765;SDS011;32527;51.986;5.842;2023-11-22T08:39:03;16.48;;;8.93;;
46765;SDS011;32527;51.986;5.842;2023-11-22T08:41:30;22.60;;;9.18;;
46765;SDS011;32527;51.986;5.842;2023-11-22T08:43:57;16.92;;;8.57;;
46765;SDS011;32527;51.986;5.842;2023-11-22T08:46:23;21.95;;;10.25;;
46765;SDS011;32527;51.986;5.842;2023-11-22T08:48:49;15.82;;;8.30;;
46765;SDS011;32527;51.986;5.842;2023-11-22T08:51:18;17.17;;;8.80;;
46765;SDS011;32527;51.986;5.842;2023-11-22T08:53:44;16.63;;;9.38;;
46765;SDS011;32527;51.986;5.842;2023-11-22T08:56:10;17.52;;;9.18;;
46765;SDS011;32527;51.986;5.842;2023-11-22T08:58:39;18.35;;;9.00;;
46765;SDS011;32527;51.986;5.842;2023-11-22T09:01:05;26.27;;;9.50;;
46765;SDS011;32527;51.986;5.842;2023-11-22T09:03:32;18.25;;;9.65;;
46765;SDS011;32527;51.986;5.842;2023-11-22T09:05:58;20.63;;;9.38;;
46765;SDS011;32527;51.986;5.842;2023-11-22T09:08:25;23.45;;;11.00;;
46765;SDS011;32527;51.986;5.842;2023-11-22T09:10:51;19.45;;;10.95;;
46765;SDS011;32527;51.986;5.842;2023-11-22T09:13:17;22.40;;;10.95;;
46765;SDS011;32527;51.986;5.842;2023-11-22T09:15:44;16.35;;;9.65;;
46765;SDS011;32527;51.986;5.842;2023-11-22T09:18:10;17.33;;;9.55;;
46765;SDS011;32527;51.986;5.842;2023-11-22T09:20:41;14.35;;;8.90;;
46765;SDS011;32527;51.986;5.842;2023-11-22T09:23:10;22.85;;;10.13;;
46765;SDS011;32527;51.986;5.842;2023-11-22T09:25:37;25.13;;;11.93;;
46765;SDS011;32527;51.986;5.842;2023-11-22T09:28:04;20.25;;;9.88;;
46765;SDS011;32527;51.986;5.842;2023-11-22T09:30:32;17.83;;;9.32;;
46765;SDS011;32527;51.986;5.842;2023-11-22T09:33:03;15.25;;;7.95;;
46765;SDS011;32527;51.986;5.842;2023-11-22T09:35:32;13.65;;;8.63;;
46765;SDS011;32527;51.986;5.842;2023-11-22T09:37:59;17.85;;;9.98;;
46765;SDS011;32527;51.986;5.842;2023-11-22T09:40:25;24.55;;;10.63;;
46765;SDS011;32527;51.986;5.842;2023-11-22T09:42:56;19.13;;;8.88;;
46765;SDS011;32527;51.986;5.842;2023-11-22T09:45:23;19.35;;;9.35;;
46765;SDS011;32527;51.986;5.842;2023-11-22T09:47:50;19.42;;;9.93;;
46765;SDS011;32527;51.986;5.842;2023-11-22T09:50:21;16.88;;;10.65;;
46765;SDS011;32527;51.986;5.842;2023-11-22T09:52:55;20.98;;;9.27;;
46765;SDS011;32527;51.986;5.842;2023-11-22T09:55:23;20.65;;;9.80;;
46765;SDS011;32527;51.986;5.842;2023-11-22T09:57:53;20.27;;;11.90;;
46765;SDS011;32527;51.986;5.842;2023-11-22T10:00:19;20.38;;;10.30;;
46765;SDS011;32527;51.986;5.842;2023-11-22T10:02:46;19.35;;;9.15;;
46765;SDS011;32527;51.986;5.842;2023-11-22T10:05:13;16.58;;;9.90;;
46765;SDS011;32527;51.986;5.842;2023-11-22T10:07:39;25.55;;;10.93;;
46765;SDS011;32527;51.986;5.842;2023-11-22T10:10:05;20.00;;;10.88;;
46765;SDS011;32527;51.986;5.842;2023-11-22T10:12:32;20.02;;;8.75;;
46765;SDS011;32527;51.986;5.842;2023-11-22T10:15:14;18.67;;;9.13;;
46765;SDS011;32527;51.986;5.842;2023-11-22T10:17:47;20.05;;;10.60;;
46765;SDS011;32527;51.986;5.842;2023-11-22T10:23:08;15.93;;;7.88;;
46765;SDS011;32527;51.986;5.842;2023-11-22T10:25:44;18.40;;;10.15;;
46765;SDS011;32527;51.986;5.842;2023-11-22T10:28:21;18.75;;;8.63;;
46765;SDS011;32527;51.986;5.842;2023-11-22T10:30:49;14.52;;;7.93;;
46765;SDS011;32527;51.986;5.842;2023-11-22T10:33:16;16.98;;;10.15;;
46765;SDS011;32527;51.986;5.842;2023-11-22T10:35:46;19.25;;;9.52;;
46765;SDS011;32527;51.986;5.842;2023-11-22T10:38:19;26.35;;;9.63;;
46765;SDS011;32527;51.986;5.842;2023-11-22T10:40:46;13.15;;;7.50;;
46765;SDS011;32527;51.986;5.842;2023-11-22T10:43:13;15.80;;;6.88;;
46765;SDS011;32527;51.986;5.842;2023-11-22T10:45:40;19.05;;;9.35;;
46765;SDS011;32527;51.986;5.842;2023-11-22T10:48:14;17.33;;;8.85;;
46765;SDS011;32527;51.986;5.842;2023-11-22T10:50:43;24.60;;;8.52;;
46765;SDS011;32527;51.986;5.842;2023-11-22T10:53:15;16.50;;;7.55;;
46765;SDS011;32527;51.986;5.842;2023-11-22T10:55:45;16.38;;;8.73;;
46765;SDS011;32527;51.986;5.842;2023-11-22T10:58:15;14.90;;;7.93;;
46765;SDS011;32527;51.986;5.842;2023-11-22T11:00:42;19.38;;;7.75;;
46765;SDS011;32527;51.986;5.842;2023-11-22T11:03:13;14.10;;;7.57;;
46765;SDS011;32527;51.986;5.842;2023-11-22T11:05:46;15.85;;;7.57;;
46765;SDS011;32527;51.986;5.842;2023-11-22T11:08:21;13.43;;;6.72;;
46765;SDS011;32527;51.986;5.842;2023-11-22T11:10:51;12.48;;;7.32;;
46765;SDS011;32527;51.986;5.842;2023-11-22T11:13:17;15.63;;;7.32;;
46765;SDS011;32527;51.986;5.842;2023-11-22T11:15:44;19.63;;;9.82;;
46765;SDS011;32527;51.986;5.842;2023-11-22T11:18:12;22.15;;;9.40;;
46765;SDS011;32527;51.986;5.842;2023-11-22T11:20:48;15.60;;;8.75;;
46765;SDS011;32527;51.986;5.842;2023-11-22T11:23:22;19.08;;;9.02;;
46765;SDS011;32527;51.986;5.842;2023-11-22T11:25:56;13.00;;;7.40;;
46765;SDS011;32527;51.986;5.842;2023-11-22T11:28:24;12.20;;;6.95;;
46765;SDS011;32527;51.986;5.842;2023-11-22T11:30:51;17.58;;;6.90;;
46765;SDS011;32527;51.986;5.842;2023-11-22T11:33:32;12.25;;;6.68;;
46765;SDS011;32527;51.986;5.842;2023-11-22T11:36:00;13.55;;;6.18;;
46765;SDS011;32527;51.986;5.842;2023-11-22T11:38:31;11.85;;;6.60;;
46765;SDS011;32527;51.986;5.842;2023-11-22T11:41:06;12.63;;;6.22;;
46765;SDS011;32527;51.986;5.842;2023-11-22T11:43:43;10.68;;;5.70;;
46765;SDS011;32527;51.986;5.842;2023-11-22T11:46:14;11.88;;;6.68;;
46765;SDS011;32527;51.986;5.842;2023-11-22T11:48:44;10.45;;;5.95;;
46765;SDS011;32527;51.986;5.842;2023-11-22T11:51:16;12.85;;;6.70;;
46765;SDS011;32527;51.986;5.842;2023-11-22T11:53:42;12.55;;;6.85;;
46765;SDS011;32527;51.986;5.842;2023-11-22T11:56:09;18.10;;;7.47;;
46765;SDS011;32527;51.986;5.842;2023-11-22T11:58:35;14.38;;;7.13;;
46765;SDS011;32527;51.986;5.842;2023-11-22T12:01:04;10.68;;;5.68;;
46765;SDS011;32527;51.986;5.842;2023-11-22T12:03:31;13.45;;;7.95;;
46765;SDS011;32527;51.986;5.842;2023-11-22T12:05:58;11.85;;;7.05;;
46765;SDS011;32527;51.986;5.842;2023-11-22T12:08:24;14.93;;;8.15;;
46765;SDS011;32527;51.986;5.842;2023-11-22T12:10:50;18.02;;;9.43;;
46765;SDS011;32527;51.986;5.842;2023-11-22T12:13:16;14.45;;;7.28;;
46765;SDS011;32527;51.986;5.842;2023-11-22T12:15:46;13.38;;;8.90;;
46765;SDS011;32527;51.986;5.842;2023-11-22T12:18:15;17.05;;;8.25;;
46765;SDS011;32527;51.986;5.842;2023-11-22T12:20:41;13.55;;;8.63;;
46765;SDS011;32527;51.986;5.842;2023-11-22T12:23:07;20.15;;;9.82;;
46765;SDS011;32527;51.986;5.842;2023-11-22T12:25:34;17.10;;;8.25;;
46765;SDS011;32527;51.986;5.842;2023-11-22T12:28:00;18.42;;;8.55;;
46765;SDS011;32527;51.986;5.842;2023-11-22T12:30:30;19.48;;;9.40;;
46765;SDS011;32527;51.986;5.842;2023-11-22T12:33:01;13.45;;;7.65;;
46765;SDS011;32527;51.986;5.842;2023-11-22T12:35:30;13.80;;;6.63;;
46765;SDS011;32527;51.986;5.842;2023-11-22T12:38:00;17.98;;;7.72;;
46765;SDS011;32527;51.986;5.842;2023-11-22T12:40:27;12.98;;;7.28;;
46765;SDS011;32527;51.986;5.842;2023-11-22T12:42:56;20.17;;;8.43;;
46765;SDS011;32527;51.986;5.842;2023-11-22T12:45:23;13.63;;;7.25;;
46765;SDS011;32527;51.986;5.842;2023-11-22T12:47:50;19.75;;;8.13;;
46765;SDS011;32527;51.986;5.842;2023-11-22T12:50:29;19.83;;;9.40;;
46765;SDS011;32527;51.986;5.842;2023-11-22T12:52:55;14.00;;;7.65;;
46765;SDS011;32527;51.986;5.842;2023-11-22T12:55:22;13.35;;;7.38;;
46765;SDS011;32527;51.986;5.842;2023-11-22T12:57:57;14.10;;;7.55;;
46765;SDS011;32527;51.986;5.842;2023-11-22T13:00:27;17.13;;;8.27;;
46765;SDS011;32527;51.986;5.842;2023-11-22T13:02:54;33.95;;;6.90;;
46765;SDS011;32527;51.986;5.842;2023-11-22T13:05:22;18.75;;;6.90;;
46765;SDS011;32527;51.986;5.842;2023-11-22T13:07:48;14.10;;;8.70;;
46765;SDS011;32527;51.986;5.842;2023-11-22T13:10:14;14.07;;;8.23;;
46765;SDS011;32527;51.986;5.842;2023-11-22T13:12:43;17.55;;;8.05;;
46765;SDS011;32527;51.986;5.842;2023-11-22T13:15:11;14.85;;;8.48;;
46765;SDS011;32527;51.986;5.842;2023-11-22T13:17:39;13.30;;;7.18;;
46765;SDS011;32527;51.986;5.842;2023-11-22T13:20:08;14.95;;;8.73;;
46765;SDS011;32527;51.986;5.842;2023-11-22T13:22:40;18.38;;;8.45;;
46765;SDS011;32527;51.986;5.842;2023-11-22T13:25:08;15.90;;;7.80;;
46765;SDS011;32527;51.986;5.842;2023-11-22T13:27:45;21.40;;;10.10;;
46765;SDS011;32527;51.986;5.842;2023-11-22T13:30:14;19.73;;;9.30;;
46765;SDS011;32527;51.986;5.842;2023-11-22T13:32:43;14.32;;;7.72;;
46765;SDS011;32527;51.986;5.842;2023-11-22T13:35:09;16.98;;;7.88;;
46765;SDS011;32527;51.986;5.842;2023-11-22T13:37:45;14.35;;;7.07;;
46765;SDS011;32527;51.986;5.842;2023-11-22T13:40:18;18.05;;;8.95;;
46765;SDS011;32527;51.986;5.842;2023-11-22T13:42:48;20.08;;;8.70;;
46765;SDS011;32527;51.986;5.842;2023-11-22T13:45:16;13.35;;;6.80;;
46765;SDS011;32527;51.986;5.842;2023-11-22T13:50:22;17.17;;;7.30;;
46765;SDS011;32527;51.986;5.842;2023-11-22T13:52:49;13.93;;;6.90;;
46765;SDS011;32527;51.986;5.842;2023-11-22T13:55:15;14.00;;;7.32;;
46765;SDS011;32527;51.986;5.842;2023-11-22T13:57:44;17.10;;;7.65;;
46765;SDS011;32527;51.986;5.842;2023-11-22T14:00:10;25.65;;;10.25;;
46765;SDS011;32527;51.986;5.842;2023-11-22T14:02:43;25.75;;;8.65;;
46765;SDS011;32527;51.986;5.842;2023-11-22T14:05:10;22.73;;;7.65;;
46765;SDS011;32527;51.986;5.842;2023-11-22T14:07:37;24.42;;;9.60;;
46765;SDS011;32527;51.986;5.842;2023-11-22T14:10:03;19.52;;;9.55;;
46765;SDS011;32527;51.986;5.842;2023-11-22T14:12:31;15.75;;;8.70;;
46765;SDS011;32527;51.986;5.842;2023-11-22T14:14:58;26.65;;;9.05;;
46765;SDS011;32527;51.986;5.842;2023-11-22T14:17:24;28.35;;;12.85;;
46765;SDS011;32527;51.986;5.842;2023-11-22T14:19:51;22.75;;;9.27;;
46765;SDS011;32527;51.986;5.842;2023-11-22T14:22:20;25.40;;;8.60;;
46765;SDS011;32527;51.986;5.842;2023-11-22T14:24:47;32.70;;;11.43;;
46765;SDS011;32527;51.986;5.842;2023-11-22T14:27:14;21.63;;;9.75;;
46765;SDS011;32527;51.986;5.842;2023-11-22T14:29:40;19.95;;;9.82;;
46765;SDS011;32527;51.986;5.842;2023-11-22T14:32:07;29.70;;;10.80;;
46765;SDS011;32527;51.986;5.842;2023-11-22T14:34:33;30.77;;;11.60;;
46765;SDS011;32527;51.986;5.842;2023-11-22T14:37:00;21.15;;;10.43;;
46765;SDS011;32527;51.986;5.842;2023-11-22T14:39:26;30.17;;;11.73;;
46765;SDS011;32527;51.986;5.842;2023-11-22T14:41:54;31.40;;;11.02;;
46765;SDS011;32527;51.986;5.842;2023-11-22T14:44:20;24.13;;;10.98;;
46765;SDS011;32527;51.986;5.842;2023-11-22T14:46:47;31.77;;;11.85;;
46765;SDS011;32527;51.986;5.842;2023-11-22T14:49:14;33.95;;;12.30;;
46765;SDS011;32527;51.986;5.842;2023-11-22T14:51:40;33.00;;;12.60;;
46765;SDS011;32527;51.986;5.842;2023-11-22T14:54:06;23.80;;;10.27;;
46765;SDS011;32527;51.986;5.842;2023-11-22T14:56:32;30.30;;;12.13;;
46765;SDS011;32527;51.986;5.842;2023-11-22T14:58:59;28.08;;;9.98;;
46765;SDS011;32527;51.986;5.842;2023-11-22T15:01:26;28.17;;;12.20;;
46765;SDS011;32527;51.986;5.842;2023-11-22T15:03:52;20.90;;;9.75;;
46765;SDS011;32527;51.986;5.842;2023-11-22T15:06:19;24.67;;;10.82;;
46765;SDS011;32527;51.986;5.842;2023-11-22T15:08:45;28.15;;;11.20;;